Time;durP1;ratioP1;P1;durP2;ratioP2;P2;SDS_P1;SDS_P2;PMS_P1;PMS_P2;Temp;Humidity;BMP_temperature;BMP_pressure;BME280_temperature;BME280_humidity;BME280_pressure;Samples;Min_cycle;Max_cycle;Signal;HPM_P1;HPM_P2
2021/12/02 00:01:15;;;;;;;17.77;4.13;;;12.80;99.90;;;;;;5044135;28;20383;-75
2021/12/02 00:03:41;;;;;;;12.60;4.30;;;12.80;99.90;;;;;;5056516;28;20395;-78
2021/12/02 00:06:10;;;;;;;13.80;3.75;;;12.80;99.90;;;;;;5056165;28;20411;-76
2021/12/02 00:08:36;;;;;;;12.07;3.80;;;12.80;99.90;;;;;;5056202;28;20021;-74
2021/12/02 00:11:03;;;;;;;12.02;3.90;;;12.80;99.90;;;;;;5056296;28;20467;-77
2021/12/02 00:13:31;;;;;;;12.35;3.60;;;12.80;99.90;;;;;;5056013;28;20120;-77
2021/12/02 00:16:01;;;;;;;11.25;3.92;;;12.80;99.90;;;;;;5055966;28;20029;-71
2021/12/02 00:21:03;;;;;;;13.27;3.80;;;12.70;99.90;;;;;;5055780;28;20041;-76
2021/12/02 00:21:25;;;;;;;11.48;3.28;;;12.70;99.90;;;;;;5055617;28;20033;-73
2021/12/02 00:24:06;;;;;;;11.23;3.65;;;12.60;99.90;;;;;;5055675;28;20083;-74
2021/12/02 00:26:35;;;;;;;12.45;5.22;;;12.60;99.90;;;;;;5055173;28;20053;-73
2021/12/02 00:29:03;;;;;;;10.25;3.38;;;12.60;99.90;;;;;;5055280;28;20037;-73
2021/12/02 00:31:32;;;;;;;11.95;3.20;;;12.50;99.90;;;;;;5055279;28;20109;-75
2021/12/02 00:34:01;;;;;;;16.38;3.75;;;12.60;99.90;;;;;;5054014;28;20041;-73
2021/12/02 00:36:30;;;;;;;12.02;5.22;;;12.60;99.90;;;;;;5053939;28;20022;-75
2021/12/02 00:38:59;;;;;;;13.95;4.63;;;12.50;99.90;;;;;;5055171;28;20021;-72
2021/12/02 00:41:27;;;;;;;12.93;3.53;;;12.50;99.90;;;;;;5055116;28;20473;-78
2021/12/02 00:43:56;;;;;;;15.98;3.33;;;12.50;99.90;;;;;;5055645;28;20021;-72
2021/12/02 00:46:25;;;;;;;11.25;3.33;;;12.40;99.90;;;;;;5055436;28;20025;-75
2021/12/02 00:48:53;;;;;;;13.98;3.90;;;12.40;99.90;;;;;;5055496;28;20106;-71
2021/12/02 00:51:19;;;;;;;9.77;2.90;;;12.40;99.90;;;;;;5055077;28;20510;-74
2021/12/02 00:53:52;;;;;;;23.27;5.53;;;12.40;99.90;;;;;;5055271;28;20029;-73
2021/12/02 00:56:22;;;;;;;8.10;2.60;;;12.40;99.90;;;;;;5054612;28;20032;-73
2021/12/02 00:58:49;;;;;;;11.43;2.50;;;12.50;99.90;;;;;;5054835;28;20044;-76
2021/12/02 01:01:17;;;;;;;11.75;2.38;;;12.50;99.90;;;;;;5054977;28;20108;-73
2021/12/02 01:03:43;;;;;;;11.02;2.08;;;12.60;99.90;;;;;;5055098;28;20343;-76
2021/12/02 01:06:10;;;;;;;10.20;2.00;;;12.70;99.90;;;;;;5054853;28;20032;-75
2021/12/02 01:08:37;;;;;;;7.60;1.83;;;12.70;99.90;;;;;;5054764;28;20027;-73
2021/12/02 01:11:06;;;;;;;6.93;1.80;;;12.80;99.90;;;;;;5053422;28;20029;-76
2021/12/02 01:13:32;;;;;;;9.63;1.92;;;12.70;99.90;;;;;;5054405;28;20466;-73
2021/12/02 01:15:58;;;;;;;8.25;1.70;;;12.80;99.90;;;;;;5054552;28;20104;-74
2021/12/02 01:18:24;;;;;;;8.43;2.40;;;12.80;99.90;;;;;;5054583;28;20402;-74
2021/12/02 01:20:52;;;;;;;5.00;1.67;;;12.80;99.90;;;;;;5054502;28;20436;-73
2021/12/02 01:23:22;;;;;;;7.53;1.80;;;12.70;99.90;;;;;;5053704;28;20059;-72
2021/12/02 01:26:13;;;;;;;5.13;1.48;;;12.70;99.90;;;;;;5054383;28;20074;-74
2021/12/02 01:28:39;;;;;;;8.10;1.20;;;12.60;99.90;;;;;;5054066;28;20490;-76
2021/12/02 01:31:06;;;;;;;3.90;1.50;;;12.60;99.90;;;;;;5054377;28;20021;-72
2021/12/02 01:33:34;;;;;;;5.93;1.52;;;12.50;99.90;;;;;;5052845;28;20031;-75
2021/12/02 01:36:03;;;;;;;5.50;1.42;;;12.50;99.90;;;;;;5054163;28;20433;-74
2021/12/02 01:38:30;;;;;;;7.55;2.08;;;12.40;99.90;;;;;;5054074;28;20047;-78
2021/12/02 01:40:58;;;;;;;6.78;1.60;;;12.40;99.90;;;;;;5032890;28;20018;-78
2021/12/02 01:43:47;;;;;;;8.00;1.65;;;12.40;99.90;;;;;;5034353;28;20466;-76
2021/12/02 01:46:17;;;;;;;5.88;1.30;;;12.40;99.90;;;;;;5034339;28;20033;-81
2021/12/02 01:48:46;;;;;;;7.25;1.40;;;12.40;99.90;;;;;;5033116;28;20466;-78
2021/12/02 01:51:12;;;;;;;7.90;2.03;;;12.40;99.90;;;;;;5033877;28;20033;-77
2021/12/02 01:53:40;;;;;;;6.68;1.20;;;12.40;99.90;;;;;;5033811;28;20468;-76
2021/12/02 01:56:16;;;;;;;7.57;1.58;;;12.40;99.90;;;;;;5033996;28;20022;-76
2021/12/02 01:58:47;;;;;;;6.28;1.40;;;12.50;99.90;;;;;;5033794;28;20124;-77
2021/12/02 02:01:26;;;;;;;4.80;1.27;;;12.50;99.90;;;;;;5032385;28;20060;-79
2021/12/02 02:03:53;;;;;;;10.15;1.85;;;12.60;99.90;;;;;;5033879;28;20025;-79
2021/12/02 02:06:32;;;;;;;6.35;1.50;;;12.50;99.90;;;;;;5031614;28;20451;-76
2021/12/02 02:08:59;;;;;;;8.32;1.70;;;12.50;99.90;;;;;;5033808;28;20021;-78
2021/12/02 02:11:28;;;;;;;8.82;1.80;;;12.50;99.90;;;;;;5038901;28;20415;-79
2021/12/02 02:13:55;;;;;;;9.88;2.28;;;12.50;99.90;;;;;;5036836;28;20036;-79
2021/12/02 02:16:21;;;;;;;10.68;1.80;;;12.50;99.90;;;;;;5037812;28;20025;-77
2021/12/02 02:18:47;;;;;;;9.77;2.28;;;12.50;99.90;;;;;;5034665;28;20164;-74
2021/12/02 02:21:17;;;;;;;11.63;2.35;;;12.50;99.90;;;;;;5033292;28;20053;-77
2021/12/02 02:24:01;;;;;;;12.55;2.20;;;12.50;99.90;;;;;;5033352;28;20065;-77
2021/12/02 02:26:28;;;;;;;;;;;12.60;99.90;;;;;;5033735;28;20164;-78
2021/12/02 02:28:57;;;;;;;8.70;1.98;;;12.60;99.90;;;;;;5032137;28;19909;-75
2021/12/02 02:31:25;;;;;;;9.73;2.13;;;12.50;99.90;;;;;;5031999;28;20026;-79
2021/12/02 02:33:53;;;;;;;9.20;1.92;;;12.60;99.90;;;;;;5033423;28;20052;-76
2021/12/02 02:36:21;;;;;;;11.77;2.50;;;12.60;99.90;;;;;;5033144;28;20022;-72
2021/12/02 02:38:58;;;;;;;7.60;2.25;;;12.60;99.90;;;;;;5032825;28;20451;-72
2021/12/02 02:41:30;;;;;;;14.98;2.92;;;12.70;99.90;;;;;;5033017;28;20029;-72
2021/12/02 02:43:59;;;;;;;12.10;2.30;;;12.70;99.90;;;;;;5032794;28;20087;-72
2021/12/02 02:46:31;;;;;;;9.38;1.98;;;12.70;99.90;;;;;;5032940;28;20032;-73
2021/12/02 02:48:58;;;;;;;9.52;2.30;;;12.70;99.90;;;;;;5033289;28;20025;-72
2021/12/02 02:51:44;;;;;;;6.88;2.00;;;12.70;99.90;;;;;;5033603;28;20065;-74
2021/12/02 02:54:13;;;;;;;12.15;2.42;;;12.70;99.90;;;;;;5032814;28;20030;-72
2021/12/02 02:57:02;;;;;;;10.50;2.40;;;12.70;99.90;;;;;;5032553;28;20109;-72
2021/12/02 02:59:38;;;;;;;14.45;2.65;;;12.70;99.90;;;;;;5032548;28;20029;-73
2021/12/02 03:07:17;;;;;;;16.10;3.47;;;12.70;99.90;;;;;;5032746;28;20433;-73
2021/12/02 03:09:58;;;;;;;11.50;2.30;;;12.70;99.90;;;;;;5032530;28;20014;-70
2021/12/02 03:12:30;;;;;;;8.43;2.00;;;12.70;99.90;;;;;;5031590;28;20363;-72
2021/12/02 03:17:27;;;;;;;8.82;2.20;;;12.70;99.90;;;;;;5032121;28;20041;-71
2021/12/02 03:19:53;;;;;;;11.57;2.75;;;12.70;99.90;;;;;;5032284;28;20029;-72
2021/12/02 03:22:18;;;;;;;13.90;2.55;;;12.60;99.90;;;;;;5032188;28;20061;-71
2021/12/02 03:24:44;;;;;;;12.13;2.67;;;12.70;99.90;;;;;;5032373;28;20465;-72
2021/12/02 03:27:10;;;;;;;10.48;1.92;;;12.70;99.90;;;;;;5032145;28;20471;-78
2021/12/02 03:29:40;;;;;;;10.48;2.25;;;12.70;99.90;;;;;;5031395;28;20053;-73
2021/12/02 03:32:07;;;;;;;8.90;2.60;;;12.70;99.90;;;;;;5031033;28;20117;-72
2021/12/02 03:34:33;;;;;;;12.52;2.50;;;12.70;99.90;;;;;;5032367;28;20022;-77
2021/12/02 03:36:59;;;;;;;6.28;2.33;;;12.70;99.90;;;;;;5032348;28;20032;-80
2021/12/02 03:39:26;;;;;;;14.30;2.53;;;12.80;99.90;;;;;;5031149;28;20047;-79
2021/12/02 03:41:52;;;;;;;9.15;2.20;;;12.80;99.90;;;;;;5032583;28;20386;-80
2021/12/02 03:44:18;;;;;;;8.20;2.20;;;12.80;99.90;;;;;;5032642;28;20021;-80
2021/12/02 03:46:44;;;;;;;13.55;2.30;;;12.80;99.90;;;;;;5032428;28;20029;-80
2021/12/02 03:49:10;;;;;;;9.70;2.33;;;12.80;99.90;;;;;;5032282;28;20482;-78
2021/12/02 03:51:36;;;;;;;9.82;2.25;;;12.80;99.90;;;;;;5032534;28;20540;-78
2021/12/02 03:54:02;;;;;;;7.53;2.13;;;12.80;99.90;;;;;;5032055;28;20108;-75
2021/12/02 03:56:27;;;;;;;9.93;2.17;;;12.80;99.90;;;;;;5032223;28;20243;-76
2021/12/02 03:58:55;;;;;;;14.05;2.95;;;12.80;99.90;;;;;;5032196;28;20467;-78
2021/12/02 04:01:22;;;;;;;12.68;2.65;;;12.80;99.90;;;;;;5031904;28;20375;-79
2021/12/02 04:03:48;;;;;;;14.52;2.40;;;12.80;99.90;;;;;;5032112;28;20029;-77
2021/12/02 04:06:15;;;;;;;11.70;2.90;;;12.80;99.90;;;;;;5032191;28;20033;-76
2021/12/02 04:08:59;;;;;;;11.25;2.63;;;12.80;99.90;;;;;;5032198;28;20111;-76
2021/12/02 04:11:36;;;;;;;13.43;2.60;;;12.70;99.90;;;;;;5032110;28;20037;-75
2021/12/02 04:16:37;;;;;;;18.10;2.58;;;12.80;99.90;;;;;;5031773;28;20041;-75
2021/12/02 04:19:05;;;;;;;20.20;3.00;;;12.80;99.90;;;;;;5032043;28;20030;-77
2021/12/02 04:21:31;;;;;;;17.25;2.92;;;12.90;99.90;;;;;;5031848;28;20079;-76
2021/12/02 04:23:57;;;;;;;9.55;2.22;;;12.90;99.90;;;;;;5031960;28;20441;-76
2021/12/02 04:26:23;;;;;;;13.38;3.42;;;12.90;99.90;;;;;;5031902;28;20033;-75
2021/12/02 04:28:49;;;;;;;14.40;2.70;;;12.90;99.90;;;;;;5031867;28;20026;-75
2021/12/02 04:31:14;;;;;;;12.52;2.60;;;13.00;99.90;;;;;;5033244;28;20044;-72
2021/12/02 04:33:40;;;;;;;16.48;3.38;;;12.90;99.90;;;;;;5035797;28;20132;-74
2021/12/02 04:36:06;;;;;;;10.15;2.40;;;13.00;99.90;;;;;;5035622;28;20072;-75
2021/12/02 04:38:33;;;;;;;15.00;2.88;;;12.90;99.90;;;;;;5035865;28;20428;-74
2021/12/02 04:40:59;;;;;;;13.50;2.58;;;12.90;99.90;;;;;;5036122;28;20402;-79
2021/12/02 04:43:25;;;;;;;14.23;2.70;;;12.90;99.90;;;;;;5035513;28;20030;-73
2021/12/02 04:45:51;;;;;;;16.55;2.80;;;12.90;99.90;;;;;;5035395;28;20032;-74
2021/12/02 04:48:17;;;;;;;11.30;2.58;;;12.90;99.90;;;;;;5035619;28;20021;-72
2021/12/02 04:50:44;;;;;;;11.18;2.35;;;12.90;99.90;;;;;;5035531;28;20028;-73
2021/12/02 04:53:10;;;;;;;12.82;2.55;;;13.00;99.90;;;;;;5036686;28;20036;-73
2021/12/02 04:55:36;;;;;;;15.25;2.92;;;12.90;99.90;;;;;;5038272;28;20496;-72
2021/12/02 04:58:03;;;;;;;11.75;2.80;;;12.90;99.90;;;;;;5036234;28;20033;-73
2021/12/02 05:00:29;;;;;;;10.25;2.67;;;12.90;99.90;;;;;;5035303;28;20029;-78
2021/12/02 05:02:55;;;;;;;13.20;2.40;;;12.80;99.90;;;;;;5035460;28;20030;-76
2021/12/02 05:05:22;;;;;;;12.20;2.80;;;12.80;99.90;;;;;;5035257;28;20025;-76
2021/12/02 05:07:49;;;;;;;14.23;2.80;;;12.90;99.90;;;;;;5035177;28;20034;-80
2021/12/02 05:10:14;;;;;;;13.55;3.47;;;12.90;99.90;;;;;;5035051;28;20072;-78
2021/12/02 05:12:40;;;;;;;15.65;2.95;;;12.90;99.90;;;;;;5034926;28;20029;-75
2021/12/02 05:15:06;;;;;;;14.40;2.63;;;12.90;99.90;;;;;;5034894;28;20030;-77
2021/12/02 05:17:33;;;;;;;13.05;2.25;;;12.90;99.90;;;;;;5034718;28;20029;-73
2021/12/02 05:19:59;;;;;;;9.90;2.80;;;12.90;99.90;;;;;;5034768;28;20391;-78
2021/12/02 05:22:24;;;;;;;9.32;1.98;;;12.90;99.90;;;;;;5034562;28;20021;-75
2021/12/02 05:24:50;;;;;;;14.20;3.28;;;12.90;99.90;;;;;;5034900;28;20039;-74
2021/12/02 05:27:16;;;;;;;11.55;2.63;;;12.90;99.90;;;;;;5033329;28;20057;-80
2021/12/02 05:29:42;;;;;;;10.23;2.13;;;13.00;99.90;;;;;;5033104;28;20059;-76
2021/12/02 05:32:08;;;;;;;10.10;2.63;;;13.00;99.90;;;;;;5033270;28;20510;-77
2021/12/02 05:34:34;;;;;;;7.40;2.20;;;12.90;99.90;;;;;;5034637;28;20033;-80
2021/12/02 05:37:00;;;;;;;9.98;2.55;;;13.00;99.90;;;;;;5034584;28;20029;-72
2021/12/02 05:39:25;;;;;;;12.13;3.22;;;13.00;99.90;;;;;;5034505;28;20039;-75
2021/12/02 05:41:53;;;;;;;11.70;2.50;;;13.00;99.90;;;;;;5033967;28;20467;-77
2021/12/02 05:44:23;;;;;;;10.02;2.92;;;13.10;99.90;;;;;;5034595;28;20043;-75
2021/12/02 05:46:50;;;;;;;9.52;3.03;;;13.10;99.90;;;;;;5035242;28;20022;-76
2021/12/02 05:49:17;;;;;;;10.32;2.53;;;13.10;99.90;;;;;;5035154;28;20025;-77
2021/12/02 05:51:44;;;;;;;15.88;2.92;;;13.10;99.90;;;;;;5034352;28;20387;-79
2021/12/02 05:54:10;;;;;;;13.63;3.08;;;13.10;99.90;;;;;;5034219;28;20044;-75
2021/12/02 05:56:36;;;;;;;12.45;3.05;;;13.10;99.90;;;;;;5034074;28;20025;-79
2021/12/02 05:59:01;;;;;;;9.15;2.88;;;13.10;99.90;;;;;;5034266;28;20044;-77
2021/12/02 06:01:27;;;;;;;9.00;2.78;;;13.10;99.90;;;;;;5033883;28;20052;-81
2021/12/02 06:03:53;;;;;;;12.55;3.35;;;13.10;99.90;;;;;;5033697;28;20030;-80
2021/12/02 06:06:20;;;;;;;11.80;2.72;;;13.10;99.90;;;;;;5033681;28;20503;-77
2021/12/02 06:08:46;;;;;;;15.27;2.95;;;13.10;99.90;;;;;;5033809;28;20037;-76
2021/12/02 06:11:12;;;;;;;13.52;2.70;;;13.10;99.90;;;;;;5033386;28;20017;-78
2021/12/02 06:13:38;;;;;;;15.63;3.55;;;13.20;99.90;;;;;;5033554;28;20134;-76
2021/12/02 06:16:04;;;;;;;13.60;2.90;;;13.20;99.90;;;;;;5033713;28;20648;-73
2021/12/02 06:18:29;;;;;;;14.65;3.08;;;13.20;99.90;;;;;;5033438;28;20037;-75
2021/12/02 06:20:55;;;;;;;14.20;2.45;;;13.30;99.90;;;;;;5033601;28;20051;-75
2021/12/02 06:23:22;;;;;;;11.05;2.00;;;13.30;99.90;;;;;;5033417;28;20091;-74
2021/12/02 06:25:48;;;;;;;10.35;2.17;;;13.30;99.90;;;;;;5033416;28;20433;-73
2021/12/02 06:28:15;;;;;;;13.45;2.63;;;13.30;99.90;;;;;;5033161;28;20060;-75
2021/12/02 06:30:41;;;;;;;13.90;2.67;;;13.30;99.90;;;;;;5033312;28;20056;-77
2021/12/02 06:33:07;;;;;;;11.27;2.20;;;13.30;99.90;;;;;;5033415;28;20348;-77
2021/12/02 06:35:33;;;;;;;9.85;2.40;;;13.30;99.90;;;;;;5033439;28;20024;-74
2021/12/02 06:37:59;;;;;;;12.02;2.17;;;13.30;99.90;;;;;;5033158;28;20470;-75
2021/12/02 06:40:25;;;;;;;14.00;2.88;;;13.30;99.90;;;;;;5033037;28;20032;-74
2021/12/02 06:42:51;;;;;;;8.13;2.03;;;13.30;99.90;;;;;;5032910;28;20390;-73
2021/12/02 06:45:16;;;;;;;9.77;1.80;;;13.30;99.90;;;;;;5032982;28;20110;-72
2021/12/02 06:47:43;;;;;;;11.02;2.60;;;13.30;99.90;;;;;;5033259;28;20100;-77
2021/12/02 06:50:15;;;;;;;10.05;2.53;;;13.30;99.90;;;;;;5033042;28;20082;-73
2021/12/02 06:52:41;;;;;;;11.55;3.67;;;13.30;99.90;;;;;;5032285;28;20036;-74
2021/12/02 06:55:10;;;;;;;12.80;2.88;;;13.40;99.90;;;;;;5045023;28;20551;-74
2021/12/02 06:57:36;;;;;;;14.70;3.08;;;13.40;99.90;;;;;;5052928;28;20044;-74
2021/12/02 07:00:07;;;;;;;13.75;3.03;;;13.40;99.90;;;;;;5053114;28;20025;-77
2021/12/02 07:02:35;;;;;;;10.32;2.17;;;13.40;99.90;;;;;;5051284;28;20079;-76
2021/12/02 07:05:03;;;;;;;11.45;4.13;;;13.40;99.90;;;;;;5052699;28;20478;-80
2021/12/02 07:07:32;;;;;;;14.65;2.30;;;13.30;99.90;;;;;;5052628;28;20501;-72
2021/12/02 07:09:59;;;;;;;12.82;3.22;;;13.30;99.90;;;;;;5052532;28;20106;-71
2021/12/02 07:12:30;;;;;;;11.55;2.28;;;13.40;99.90;;;;;;5052616;28;20047;-76
2021/12/02 07:14:58;;;;;;;14.32;2.50;;;13.40;99.90;;;;;;5052551;28;20087;-72
2021/12/02 07:17:24;;;;;;;13.18;2.40;;;13.50;99.90;;;;;;5052573;28;20083;-75
2021/12/02 07:19:50;;;;;;;12.95;2.40;;;13.50;99.90;;;;;;5052786;28;20604;-73
2021/12/02 07:22:15;;;;;;;11.88;2.63;;;13.60;99.90;;;;;;5052519;28;20034;-71
2021/12/02 07:24:41;;;;;;;9.55;2.15;;;13.60;99.90;;;;;;5046606;28;20021;-76
2021/12/02 07:27:07;;;;;;;10.88;2.15;;;13.70;99.90;;;;;;5052298;28;20041;-71
2021/12/02 07:29:33;;;;;;;11.50;2.40;;;13.70;99.90;;;;;;5052292;28;20115;-73
2021/12/02 07:32:02;;;;;;;20.25;9.27;;;13.70;99.90;;;;;;5051407;28;20047;-78
2021/12/02 07:34:33;;;;;;;17.90;9.15;;;13.70;99.90;;;;;;5043240;28;20029;-81
2021/12/02 07:37:00;;;;;;;11.00;2.80;;;13.80;99.90;;;;;;5035334;28;20025;-80
2021/12/02 07:39:28;;;;;;;12.90;2.60;;;13.80;99.90;;;;;;5035656;28;20060;-78
2021/12/02 07:41:55;;;;;;;8.73;2.85;;;13.90;99.90;;;;;;5036010;28;20022;-78
2021/12/02 07:44:22;;;;;;;19.00;3.10;;;14.00;99.90;;;;;;5032868;28;20029;-77
2021/12/02 07:46:49;;;;;;;14.02;2.95;;;14.00;99.90;;;;;;5050410;28;20106;-75
2021/12/02 07:49:14;;;;;;;15.40;3.00;;;14.10;99.90;;;;;;5052140;28;20033;-78
2021/12/02 07:51:44;;;;;;;9.85;2.70;;;14.10;99.90;;;;;;5048727;28;20026;-75
2021/12/02 07:54:12;;;;;;;11.70;2.80;;;14.20;99.90;;;;;;5035216;28;20036;-79
2021/12/02 07:56:39;;;;;;;13.18;2.88;;;14.30;99.90;;;;;;5031904;28;20105;-75
2021/12/02 07:59:05;;;;;;;18.55;4.03;;;14.40;99.90;;;;;;5032077;28;20041;-75
2021/12/02 08:01:34;;;;;;;19.23;2.90;;;14.50;99.90;;;;;;5031952;28;20040;-74
2021/12/02 08:04:00;;;;;;;11.00;2.60;;;14.50;99.90;;;;;;5032556;28;20087;-75
2021/12/02 08:06:27;;;;;;;18.15;4.28;;;14.50;99.90;;;;;;5035749;28;20399;-75
2021/12/02 08:08:54;;;;;;;12.57;3.72;;;14.60;99.90;;;;;;5035739;28;20072;-76
2021/12/02 08:11:19;;;;;;;15.30;3.42;;;14.70;99.90;;;;;;5035826;28;20025;-76
2021/12/02 08:13:50;;;;;;;13.10;3.05;;;14.80;99.90;;;;;;5035612;28;20033;-76
2021/12/02 08:16:18;;;;;;;20.70;3.88;;;14.90;99.90;;;;;;5035314;28;20025;-76
2021/12/02 08:18:44;;;;;;;16.33;3.10;;;15.00;99.90;;;;;;5035255;28;20038;-76
2021/12/02 08:21:10;;;;;;;14.45;3.33;;;15.10;99.90;;;;;;5035061;28;20052;-74
2021/12/02 08:23:35;;;;;;;10.57;3.35;;;15.20;99.90;;;;;;5035262;28;20427;-75
2021/12/02 08:26:01;;;;;;;11.60;3.13;;;15.20;99.90;;;;;;5033640;28;20032;-77
2021/12/02 08:28:28;;;;;;;15.35;3.63;;;15.20;99.90;;;;;;5035125;28;20044;-75
2021/12/02 08:30:55;;;;;;;13.40;3.03;;;15.20;99.90;;;;;;5034931;28;20018;-74
2021/12/02 08:33:21;;;;;;;14.32;3.42;;;15.30;99.90;;;;;;5035070;28;20029;-74
2021/12/02 08:35:47;;;;;;;17.65;3.47;;;15.30;99.90;;;;;;5033946;28;20034;-77
2021/12/02 08:38:16;;;;;;;12.80;2.67;;;15.20;99.90;;;;;;5033635;28;20479;-76
2021/12/02 08:40:47;;;;;;;15.57;3.13;;;15.20;99.90;;;;;;5033467;28;20038;-76
2021/12/02 08:43:14;;;;;;;12.27;2.80;;;15.10;99.90;;;;;;5035006;28;20040;-77
2021/12/02 08:45:43;;;;;;;15.00;3.03;;;15.10;99.90;;;;;;5035950;28;20030;-77
2021/12/02 08:48:10;;;;;;;20.00;3.45;;;15.00;99.90;;;;;;5036095;28;20033;-77
2021/12/02 08:50:38;;;;;;;13.55;3.50;;;15.00;99.90;;;;;;5035739;28;20125;-76
2021/12/02 08:53:04;;;;;;;12.07;3.53;;;14.90;99.90;;;;;;5017206;28;20398;-75
2021/12/02 08:55:31;;;;;;;21.38;3.72;;;14.90;99.90;;;;;;5035112;28;20108;-77
2021/12/02 08:57:58;;;;;;;15.18;3.63;;;14.90;99.90;;;;;;5034772;28;20026;-77
2021/12/02 09:00:27;;;;;;;17.67;3.13;;;14.90;99.90;;;;;;5035373;28;20056;-78
2021/12/02 09:02:55;;;;;;;13.00;3.25;;;14.80;99.90;;;;;;5034611;28;20013;-78
2021/12/02 09:05:22;;;;;;;16.35;3.40;;;14.90;99.90;;;;;;5033387;28;20025;-76
2021/12/02 09:07:48;;;;;;;19.95;3.13;;;14.90;99.90;;;;;;5034601;28;20378;-76
2021/12/02 09:10:13;;;;;;;18.52;8.13;;;14.90;99.90;;;;;;5034665;28;20045;-79
2021/12/02 09:12:42;;;;;;;25.63;12.27;;;14.90;99.90;;;;;;5034662;28;20022;-78
2021/12/02 09:15:08;;;;;;;19.33;5.70;;;14.80;99.90;;;;;;5034806;28;20075;-77
2021/12/02 09:17:35;;;;;;;23.65;5.43;;;14.80;99.90;;;;;;5034015;28;20065;-75
2021/12/02 09:20:03;;;;;;;16.10;4.57;;;14.70;99.90;;;;;;5034685;28;20485;-78
2021/12/02 09:22:28;;;;;;;19.38;5.07;;;14.70;99.90;;;;;;5034365;28;20470;-77
2021/12/02 09:24:54;;;;;;;17.52;4.18;;;14.70;99.90;;;;;;5034124;28;20037;-76
2021/12/02 09:27:20;;;;;;;19.23;4.43;;;14.70;99.90;;;;;;5034061;28;20045;-79
2021/12/02 09:29:46;;;;;;;11.88;3.35;;;14.70;99.90;;;;;;5032859;28;20025;-79
2021/12/02 09:32:12;;;;;;;15.02;4.10;;;14.70;99.90;;;;;;5034193;28;20422;-77
2021/12/02 09:34:38;;;;;;;16.55;4.07;;;14.60;99.90;;;;;;5034255;28;20025;-77
2021/12/02 09:37:04;;;;;;;18.05;3.75;;;14.60;99.90;;;;;;5034229;28;20451;-79
2021/12/02 09:39:31;;;;;;;17.35;3.45;;;14.50;99.90;;;;;;5034181;28;20037;-76
2021/12/02 09:41:57;;;;;;;16.70;4.25;;;14.50;99.90;;;;;;5033992;28;20022;-77
2021/12/02 09:44:23;;;;;;;16.02;3.90;;;14.40;99.90;;;;;;5034369;28;20030;-78
2021/12/02 09:46:50;;;;;;;15.20;4.28;;;14.40;99.90;;;;;;5034045;28;20068;-76
2021/12/02 09:49:16;;;;;;;14.13;3.47;;;14.40;99.90;;;;;;5033983;28;20032;-78
2021/12/02 09:55:08;;;;;;;23.52;4.28;;;14.60;99.90;;;;;;5034213;28;20087;-76
2021/12/02 09:57:15;;;;;;;12.65;2.47;;;14.80;99.90;;;;;;5035676;28;20531;-78
2021/12/02 10:02:10;;;;;;;10.27;2.33;;;15.20;99.90;;;;;;5033894;28;20030;-78
2021/12/02 10:04:45;;;;;;;12.90;2.75;;;15.30;99.90;;;;;;5033740;28;20059;-76
2021/12/02 10:07:22;;;;;;;15.80;3.20;;;15.30;99.90;;;;;;5033746;28;20060;-77
2021/12/02 10:10:04;;;;;;;8.82;2.92;;;15.20;99.90;;;;;;5033671;28;20036;-78
2021/12/02 10:12:33;;;;;;;10.32;2.60;;;15.10;99.90;;;;;;5033556;28;20064;-77
2021/12/02 10:15:02;;;;;;;13.18;3.03;;;15.00;99.90;;;;;;5033271;28;20393;-76
2021/12/02 10:23:01;;;;;;;14.77;4.40;;;14.60;99.90;;;;;;5034986;28;20212;-76
2021/12/02 10:25:32;;;;;;;14.25;3.28;;;14.50;99.90;;;;;;5037076;28;20087;-77
2021/12/02 10:28:08;;;;;;;11.48;3.45;;;14.40;99.90;;;;;;5035885;28;20060;-74
2021/12/02 10:30:38;;;;;;;13.77;3.80;;;14.40;99.90;;;;;;5032980;28;20323;-76
2021/12/02 10:33:04;;;;;;;16.60;4.05;;;14.30;99.90;;;;;;5031698;28;20037;-76
2021/12/02 10:35:41;;;;;;;10.43;2.67;;;14.20;99.90;;;;;;5032981;28;20474;-77
2021/12/02 10:38:07;;;;;;;12.18;2.70;;;14.10;99.90;;;;;;5033282;28;20041;-76
2021/12/02 10:40:34;;;;;;;10.30;2.80;;;14.00;99.90;;;;;;5033195;28;20018;-77
2021/12/02 10:43:07;;;;;;;12.20;2.60;;;14.00;99.90;;;;;;5033079;28;20053;-73
2021/12/02 10:45:32;;;;;;;11.82;2.90;;;14.00;99.90;;;;;;5015625;28;20029;-77
2021/12/02 10:47:58;;;;;;;24.55;12.13;;;14.00;99.90;;;;;;5033117;28;20028;-76
2021/12/02 10:50:26;;;;;;;33.97;16.00;;;14.00;99.90;;;;;;5033101;28;20028;-75
2021/12/02 10:52:52;;;;;;;31.50;17.60;;;14.00;99.90;;;;;;5032784;28;20033;-74
2021/12/02 10:55:23;;;;;;;15.02;7.35;;;14.00;99.90;;;;;;5032826;28;20025;-74
2021/12/02 10:57:54;;;;;;;12.48;4.18;;;14.00;99.90;;;;;;5031515;28;20037;-77
2021/12/02 11:00:28;;;;;;;8.60;2.72;;;14.00;99.90;;;;;;5032884;28;20528;-78
2021/12/02 11:02:57;;;;;;;7.88;2.40;;;14.00;99.90;;;;;;5032757;28;20017;-74
2021/12/02 11:05:34;;;;;;;15.00;2.63;;;14.00;99.90;;;;;;5032735;28;20548;-75
2021/12/02 11:08:07;;;;;;;12.27;2.85;;;14.00;99.90;;;;;;5032646;28;20022;-77
2021/12/02 11:10:46;;;;;;;20.38;3.15;;;14.10;99.90;;;;;;5032579;28;20029;-78
2021/12/02 11:13:19;;;;;;;14.98;3.83;;;14.20;99.90;;;;;;5032622;28;20079;-77
2021/12/02 11:15:45;;;;;;;22.13;4.05;;;14.20;99.90;;;;;;5032311;28;20041;-77
2021/12/02 11:18:14;;;;;;;16.67;3.50;;;14.30;99.90;;;;;;5032583;28;20139;-77
2021/12/02 11:20:50;;;;;;;14.23;3.55;;;14.30;99.90;;;;;;5032242;28;20508;-73
2021/12/02 11:23:28;;;;;;;18.92;4.10;;;14.30;99.90;;;;;;5031983;28;20057;-77
2021/12/02 11:26:10;;;;;;;20.05;4.28;;;14.30;99.90;;;;;;5031882;28;20021;-78
2021/12/02 11:28:39;;;;;;;20.20;4.88;;;14.30;99.90;;;;;;5032158;28;20037;-76
2021/12/02 11:31:18;;;;;;;19.58;3.65;;;14.30;99.90;;;;;;5030637;28;20116;-76
2021/12/02 11:33:46;;;;;;;26.45;3.92;;;14.30;99.90;;;;;;5032268;28;20072;-78
2021/12/02 11:36:30;;;;;;;9.27;2.20;;;14.30;99.90;;;;;;5032184;28;20116;-77
2021/12/02 11:38:59;;;;;;;6.53;1.95;;;14.20;99.90;;;;;;5031715;28;20037;-76
2021/12/02 11:41:26;;;;;;;7.38;1.80;;;14.10;99.90;;;;;;5032469;28;20057;-77
2021/12/02 11:43:53;;;;;;;3.67;1.30;;;14.00;99.90;;;;;;5032135;28;20458;-75
2021/12/02 11:46:19;;;;;;;14.25;2.88;;;13.90;99.90;;;;;;5032302;28;20479;-76
2021/12/02 11:48:46;;;;;;;10.40;2.67;;;13.90;99.90;;;;;;5031944;28;20029;-75
2021/12/02 11:51:14;;;;;;;10.50;2.85;;;13.90;99.90;;;;;;5032138;28;20049;-77
2021/12/02 11:53:40;;;;;;;15.20;3.13;;;13.90;99.90;;;;;;5032023;28;20101;-75
2021/12/02 11:56:09;;;;;;;6.97;2.03;;;13.90;99.90;;;;;;5031950;28;20046;-76
2021/12/02 11:58:35;;;;;;;5.93;1.80;;;13.80;99.90;;;;;;5032002;28;20076;-76
2021/12/02 12:01:01;;;;;;;5.50;1.70;;;13.70;99.90;;;;;;5031999;28;20060;-76
2021/12/02 12:03:37;;;;;;;6.68;1.80;;;13.60;99.90;;;;;;5032120;28;20121;-75
2021/12/02 12:06:13;;;;;;;6.85;1.52;;;13.50;99.90;;;;;;5032059;28;20107;-79
2021/12/02 12:08:47;;;;;;;6.18;1.63;;;13.50;99.90;;;;;;5032329;28;20088;-78
2021/12/02 12:11:28;;;;;;;5.00;1.73;;;13.50;99.90;;;;;;5032325;28;20021;-78
2021/12/02 12:14:08;;;;;;;6.13;2.40;;;13.50;99.90;;;;;;5032290;28;20034;-76
2021/12/02 12:16:45;;;;;;;7.43;2.33;;;13.60;99.90;;;;;;5032271;28;20022;-76
2021/12/02 12:19:21;;;;;;;8.32;2.45;;;13.60;99.90;;;;;;5032093;28;20034;-76
2021/12/02 12:21:53;;;;;;;9.13;2.10;;;13.60;99.90;;;;;;5031974;28;20044;-74
2021/12/02 12:24:19;;;;;;;11.77;2.40;;;13.60;99.90;;;;;;5031767;28;20033;-77
2021/12/02 12:26:47;;;;;;;13.68;3.13;;;13.60;99.90;;;;;;5031643;28;20111;-76
2021/12/02 12:29:13;;;;;;;15.73;3.40;;;13.60;99.90;;;;;;5031638;28;20085;-78
2021/12/02 12:31:51;;;;;;;13.68;2.85;;;13.60;99.90;;;;;;5031404;28;20115;-77
2021/12/02 12:34:30;;;;;;;11.38;2.17;;;13.60;99.90;;;;;;5031672;28;20475;-78
2021/12/02 12:36:57;;;;;;;5.78;1.75;;;13.60;99.90;;;;;;5031861;28;20036;-78
2021/12/02 12:39:26;;;;;;;11.82;2.50;;;13.50;99.90;;;;;;5031922;28;20044;-78
2021/12/02 12:42:24;;;;;;;9.02;1.88;;;13.50;99.90;;;;;;5031544;28;20056;-77
2021/12/02 12:44:55;;;;;;;6.38;1.77;;;13.50;99.90;;;;;;5030314;28;20061;-76
2021/12/02 12:47:47;;;;;;;7.88;1.48;;;13.40;99.90;;;;;;5031851;28;20103;-76
2021/12/02 12:50:34;;;;;;;5.65;2.00;;;13.40;99.90;;;;;;5031563;28;20384;-76
2021/12/02 12:53:03;;;;;;;7.90;2.33;;;13.30;99.90;;;;;;5035165;28;20025;-77
2021/12/02 12:55:30;;;;;;;11.20;2.45;;;13.30;99.90;;;;;;5033526;28;20040;-76
2021/12/02 12:58:16;;;;;;;12.40;2.05;;;13.20;99.90;;;;;;5034863;28;20555;-78
2021/12/02 13:00:52;;;;;;;6.82;1.65;;;13.20;99.90;;;;;;5035457;28;20022;-78
2021/12/02 13:03:28;;;;;;;10.05;2.08;;;13.10;99.90;;;;;;5036119;28;20539;-75
2021/12/02 13:05:58;;;;;;;8.25;2.45;;;13.10;99.90;;;;;;5035187;28;20064;-76
2021/12/02 13:08:33;;;;;;;9.63;2.47;;;13.10;99.90;;;;;;5035061;28;20033;-77
2021/12/02 13:11:02;;;;;;;7.55;2.30;;;13.00;99.90;;;;;;5034846;28;20029;-78